Time;durP1;ratioP1;P1;durP2;ratioP2;P2;SDS_P1;SDS_P2;PMS_P1;PMS_P2;Temp;Humidity;BMP_temperature;BMP_pressure;BME280_temperature;BME280_humidity;BME280_pressure;Samples;Min_cycle;Max_cycle;Signal;HPM_P1;HPM_P2
2021/04/20 00:08:56;;;;;;;24.40;12.10;;;3.90;99.90;;;;;;20747119;28;20508;-74
2021/04/20 00:18:57;;;;;;;24.73;11.23;;;3.70;99.90;;;;;;20746941;28;20475;-74
2021/04/20 00:28:58;;;;;;;23.60;11.83;;;3.50;99.90;;;;;;20747019;28;20041;-74
2021/04/20 00:38:58;;;;;;;24.07;12.23;;;3.40;99.90;;;;;;20746467;28;20037;-75
2021/04/20 00:48:59;;;;;;;22.13;11.33;;;3.30;99.90;;;;;;20745891;28;20034;-74
2021/04/20 00:59:01;;;;;;;25.88;12.10;;;3.30;99.90;;;;;;20744940;28;20049;-74
2021/04/20 01:09:04;;;;;;;25.17;13.05;;;3.20;99.90;;;;;;20743351;28;20038;-74
2021/04/20 01:19:07;;;;;;;28.65;13.30;;;3.10;99.90;;;;;;20743886;28;20038;-75
2021/04/20 01:29:08;;;;;;;24.38;11.85;;;3.00;99.90;;;;;;20743400;28;20092;-75
2021/04/20 01:39:11;;;;;;;30.52;13.25;;;3.20;99.90;;;;;;20757931;28;20096;-74
2021/04/20 01:49:12;;;;;;;25.02;12.25;;;2.80;99.90;;;;;;20742621;28;20038;-74
2021/04/20 01:59:15;;;;;;;23.80;11.25;;;2.90;99.90;;;;;;20742060;28;20527;-74
2021/04/20 02:09:16;;;;;;;30.88;12.60;;;2.70;99.90;;;;;;20741807;28;20519;-75
2021/04/20 02:19:17;;;;;;;30.35;13.30;;;2.70;99.90;;;;;;20740133;28;20038;-74
2021/04/20 02:29:18;;;;;;;27.42;13.40;;;2.70;99.90;;;;;;20741044;28;20061;-74
2021/04/20 02:39:19;;;;;;;30.48;13.50;;;2.30;99.90;;;;;;20740638;28;20041;-75
2021/04/20 02:49:20;;;;;;;30.25;13.80;;;2.40;99.90;;;;;;20752213;28;20042;-74
2021/04/20 02:59:22;;;;;;;36.70;15.02;;;2.10;99.90;;;;;;20754025;28;20042;-75
2021/04/20 03:09:23;;;;;;;25.63;12.80;;;2.30;99.90;;;;;;20783352;28;20057;-74
2021/04/20 03:19:23;;;;;;;;;;;2.10;99.90;;;;;;20787458;28;20089;-75
2021/04/20 03:29:26;;;;;;;35.75;13.35;;;2.10;99.90;;;;;;20882586;22;19920;-75
2021/04/20 03:39:29;;;;;;;34.35;14.80;;;2.10;99.90;;;;;;20915433;28;20052;-75
2021/04/20 03:49:33;;;;;;;34.30;14.48;;;2.00;99.90;;;;;;20905904;28;20033;-75
2021/04/20 03:59:35;;;;;;;32.25;15.13;;;2.00;99.90;;;;;;20911399;28;20495;-75
2021/04/20 04:09:38;;;;;;;25.23;11.50;;;2.00;99.90;;;;;;20913074;28;20057;-75
2021/04/20 04:19:49;;;;;;;28.25;13.43;;;1.80;99.90;;;;;;20911881;28;20124;-75
2021/04/20 04:29:52;;;;;;;26.65;12.23;;;1.90;99.90;;;;;;20910018;28;20052;-75
2021/04/20 04:39:55;;;;;;;30.38;13.80;;;1.90;99.90;;;;;;20910427;28;20087;-75
2021/04/20 04:50:00;;;;;;;29.75;14.57;;;1.60;99.90;;;;;;20909772;28;20115;-75
2021/04/20 05:00:06;;;;;;;27.20;12.95;;;1.90;99.90;;;;;;20908879;28;20413;-75
2021/04/20 05:10:10;;;;;;;24.75;12.57;;;2.10;99.90;;;;;;20908267;28;20033;-75
2021/04/20 05:20:13;;;;;;;24.55;11.18;;;2.30;99.90;;;;;;20907724;28;20041;-75
2021/04/20 05:30:14;;;;;;;25.27;13.00;;;2.70;99.90;;;;;;20907265;28;20041;-74
2021/04/20 05:40:16;;;;;;;;;;;2.90;99.90;;;;;;20905929;28;20033;-74
2021/04/20 05:50:28;;;;;;;26.75;12.52;;;3.00;99.90;;;;;;20848114;28;19920;-74
2021/04/20 06:00:29;;;;;;;30.20;15.47;;;3.30;99.90;;;;;;20862713;28;20479;-75
2021/04/20 06:10:31;;;;;;;29.00;14.60;;;3.70;99.90;;;;;;20851424;28;20052;-74
2021/04/20 06:20:33;;;;;;;24.42;12.90;;;4.00;99.90;;;;;;20912630;28;20083;-74
2021/04/20 06:30:34;;;;;;;32.72;15.38;;;4.10;99.90;;;;;;20920728;28;20076;-74
2021/04/20 06:40:40;;;;;;;28.67;13.90;;;4.40;99.90;;;;;;20919470;28;20043;-74
2021/04/20 06:50:43;;;;;;;31.80;15.55;;;4.90;99.90;;;;;;20918792;28;20112;-74
2021/04/20 07:00:58;;;;;;;26.75;14.40;;;6.50;99.90;;;;;;20917845;28;20045;-74
2021/04/20 07:11:00;;;;;;;27.83;16.00;;;7.60;99.90;;;;;;20917423;28;20411;-75
2021/04/20 07:21:14;;;;;;;32.13;16.30;;;8.40;99.90;;;;;;20916378;28;20499;-75
2021/04/20 07:31:36;;;;;;;37.15;17.10;;;8.50;99.90;;;;;;20915220;28;20132;-74
2021/04/20 07:41:42;;;;;;;31.40;15.95;;;9.40;99.90;;;;;;20914934;28;20037;-75
2021/04/20 07:51:48;;;;;;;33.22;15.30;;;9.60;99.90;;;;;;20914200;28;20032;-75
2021/04/20 08:01:54;;;;;;;23.13;14.02;;;10.90;99.90;;;;;;20912185;28;20442;-76
2021/04/20 08:12:18;;;;;;;26.08;13.68;;;11.40;99.90;;;;;;20879211;28;20121;-75
2021/04/20 08:22:19;;;;;;;21.08;12.43;;;12.10;99.90;;;;;;20856465;28;20077;-76
2021/04/20 08:32:25;;;;;;;23.63;13.60;;;12.50;99.90;;;;;;20837506;28;20041;-75
2021/04/20 08:42:31;;;;;;;22.90;13.20;;;13.10;99.90;;;;;;20834925;28;20499;-75
2021/04/20 08:52:57;;;;;;;24.23;12.55;;;12.70;99.90;;;;;;20867931;28;20040;-76
2021/04/20 09:03:05;;;;;;;21.20;12.73;;;12.90;99.90;;;;;;20907494;28;20041;-76
2021/04/20 09:13:12;;;;;;;20.60;11.35;;;14.00;99.90;;;;;;20908187;28;20040;-75
2021/04/20 09:23:40;;;;;;;18.05;11.13;;;15.10;99.90;;;;;;20913821;22;20077;-78
2021/04/20 09:33:52;;;;;;;19.23;11.02;;;16.10;99.90;;;;;;20824148;28;20053;-77
2021/04/20 09:44:06;;;;;;;19.67;11.30;;;16.20;99.90;;;;;;20807094;28;20519;-78
2021/04/20 09:54:36;;;;;;;18.05;10.73;;;16.10;99.90;;;;;;20831668;28;20442;-77
2021/04/20 10:04:40;;;;;;;16.48;10.30;;;16.90;99.90;;;;;;20840692;28;20495;-78
2021/04/20 10:15:10;;;;;;;14.55;9.68;;;17.60;99.90;;;;;;20806309;28;20171;-78
2021/04/20 10:25:35;;;;;;;16.08;10.30;;;17.80;99.90;;;;;;20845460;28;20500;-78
2021/04/20 10:35:37;;;;;;;13.48;8.40;;;18.50;99.60;;;;;;20835150;28;20037;-77
2021/04/20 10:45:40;;;;;;;13.13;8.45;;;18.40;98.70;;;;;;20809348;28;20113;-77
2021/04/20 10:55:47;;;;;;;17.08;9.27;;;18.70;97.80;;;;;;20781309;28;20065;-77
2021/04/20 11:05:48;;;;;;;14.38;8.55;;;18.40;99.30;;;;;;20758968;28;20049;-77
2021/04/20 11:15:56;;;;;;;11.65;7.40;;;16.90;99.20;;;;;;20753637;28;20046;-77
2021/04/20 11:26:04;;;;;;;19.77;7.90;;;18.00;97.80;;;;;;20761904;28;20052;-77
2021/04/20 11:36:42;;;;;;;18.83;7.40;;;18.20;99.90;;;;;;20751799;28;20459;-78
2021/04/20 11:46:48;;;;;;;7.93;5.32;;;19.50;95.30;;;;;;20788423;28;20052;-77
2021/04/20 11:56:50;;;;;;;7.97;5.85;;;21.40;93.60;;;;;;20814831;28;20156;-77
2021/04/20 12:06:53;;;;;;;9.20;5.47;;;21.00;93.30;;;;;;20766760;28;20041;-77
2021/04/20 12:16:59;;;;;;;8.30;5.53;;;20.20;90.40;;;;;;20809257;28;20041;-76
2021/04/20 12:27:03;;;;;;;8.35;5.35;;;20.50;87.00;;;;;;20771185;28;20049;-77
2021/04/20 12:37:05;;;;;;;10.93;5.93;;;18.70;90.60;;;;;;20737627;28;20044;-76
2021/04/20 12:47:13;;;;;;;9.13;5.18;;;18.80;90.40;;;;;;21215754;27;20434;-77
2021/04/20 12:57:19;;;;;;;9.25;5.50;;;19.40;85.00;;;;;;21127291;28;20016;-76
2021/04/20 13:07:27;;;;;;;9.98;5.60;;;19.80;89.60;;;;;;21122596;28;20058;-76
2021/04/20 13:17:32;;;;;;;10.75;5.85;;;19.10;85.90;;;;;;21123137;28;20095;-74
2021/04/20 13:27:38;;;;;;;11.52;5.10;;;18.70;83.40;;;;;;21122366;28;20116;-76
2021/04/20 13:37:40;;;;;;;9.15;4.93;;;19.50;81.40;;;;;;21123802;28;20370;-76
2021/04/20 13:47:42;;;;;;;;;;;18.90;83.40;;;;;;21123892;28;20481;-77
2021/04/20 13:57:56;;;;;;;5.55;3.58;;;20.60;77.40;;;;;;21084025;28;19915;-76
2021/04/20 14:07:58;;;;;;;5.95;3.80;;;18.80;82.30;;;;;;21150035;27;20562;-76
2021/04/20 14:18:09;;;;;;;5.53;4.00;;;19.80;82.00;;;;;;21149215;28;20041;-76
2021/04/20 14:28:13;;;;;;;6.68;4.53;;;21.10;80.50;;;;;;21131059;28;20497;-77
2021/04/20 14:38:14;;;;;;;8.90;4.00;;;21.20;74.30;;;;;;21061733;28;20063;-76
2021/04/20 14:48:17;;;;;;;8.13;4.60;;;20.00;76.00;;;;;;21073949;28;20530;-77
2021/04/20 14:58:24;;;;;;;6.70;3.83;;;20.30;73.90;;;;;;21069723;28;20034;-77
2021/04/20 15:08:39;;;;;;;6.03;3.88;;;19.80;74.40;;;;;;21059708;28;20451;-77
2021/04/20 15:18:44;;;;;;;6.30;4.15;;;19.50;75.70;;;;;;21058318;28;20402;-77
2021/04/20 15:28:46;;;;;;;6.88;3.28;;;19.30;75.40;;;;;;20964996;22;20053;-75
2021/04/20 15:38:57;;;;;;;;;;;19.10;79.10;;;;;;20888480;28;20036;-76
2021/04/20 15:49:03;;;;;;;7.13;3.47;;;19.40;77.10;;;;;;20888567;28;20222;-75
2021/04/20 15:59:07;;;;;;;5.28;3.17;;;18.80;77.40;;;;;;20886521;28;20446;-75
2021/04/20 16:09:18;;;;;;;5.35;2.95;;;17.80;81.20;;;;;;20888005;28;20555;-76
2021/04/20 16:19:21;;;;;;;5.90;3.55;;;17.90;83.50;;;;;;20888134;28;20063;-74
2021/04/20 16:29:24;;;;;;;5.30;3.78;;;16.80;86.70;;;;;;20898794;28;20048;-77
2021/04/20 16:39:49;;;;;;;7.20;3.60;;;15.80;90.10;;;;;;20839079;28;20445;-77
2021/04/20 16:50:00;;;;;;;5.72;3.17;;;15.40;90.40;;;;;;20905373;28;20088;-76
2021/04/20 17:00:40;;;;;;;10.77;3.85;;;15.10;93.40;;;;;;20824703;28;20447;-77
2021/04/20 17:11:02;;;;;;;9.50;4.43;;;14.80;95.70;;;;;;20826246;28;20513;-77
2021/04/20 17:21:17;;;;;;;8.00;4.75;;;14.40;96.60;;;;;;20899177;28;20047;-77
2021/04/20 17:31:24;;;;;;;10.02;4.18;;;14.20;97.00;;;;;;20907339;28;20045;-77
2021/04/20 17:41:45;;;;;;;8.80;3.53;;;14.30;97.90;;;;;;20835971;28;20538;-76
2021/04/20 17:52:23;;;;;;;9.70;3.33;;;14.00;98.10;;;;;;20902875;28;20040;-76
2021/04/20 18:02:29;;;;;;;5.72;3.10;;;13.70;97.50;;;;;;20898719;28;20032;-76
2021/04/20 18:12:49;;;;;;;5.05;3.50;;;13.50;98.60;;;;;;20898342;28;20084;-76
2021/04/20 18:23:21;;;;;;;5.28;2.90;;;13.10;99.80;;;;;;20897439;28;20518;-76
2021/04/20 18:33:38;;;;;;;5.50;3.07;;;13.10;99.90;;;;;;20897185;28;20095;-75
2021/04/20 18:44:09;;;;;;;5.22;3.03;;;12.00;99.90;;;;;;20896201;28;20041;-75
2021/04/20 18:54:40;;;;;;;6.38;3.90;;;10.80;99.90;;;;;;20894980;28;20564;-75
2021/04/20 19:04:46;;;;;;;7.10;3.80;;;9.90;99.90;;;;;;20894877;28;20653;-75
2021/04/20 19:15:12;;;;;;;6.18;3.75;;;9.90;99.90;;;;;;20892894;28;20403;-76
2021/04/20 19:25:23;;;;;;;5.30;3.10;;;8.90;99.90;;;;;;20891123;28;20616;-75
2021/04/20 19:35:54;;;;;;;7.20;3.50;;;9.60;99.90;;;;;;20892049;28;20538;-75
2021/04/20 19:46:12;;;;;;;9.63;4.25;;;9.60;99.90;;;;;;20890839;28;20993;-75
2021/04/20 19:56:15;;;;;;;5.63;3.78;;;8.50;99.90;;;;;;20890452;28;20517;-75
2021/04/20 20:06:19;;;;;;;7.60;3.55;;;8.50;99.90;;;;;;20887717;28;20037;-74
2021/04/20 20:16:27;;;;;;;6.03;3.65;;;8.70;99.90;;;;;;20889051;28;20037;-76
2021/04/20 20:26:28;;;;;;;8.15;3.83;;;8.40;99.90;;;;;;20888785;28;20068;-75
2021/04/20 20:36:33;;;;;;;8.00;3.77;;;8.60;99.90;;;;;;20889938;28;20043;-75
2021/04/20 20:46:38;;;;;;;6.80;4.00;;;7.80;99.90;;;;;;20900776;28;20455;-75
2021/04/20 20:56:47;;;;;;;7.95;4.28;;;7.50;99.90;;;;;;20886563;28;20029;-75
2021/04/20 21:06:58;;;;;;;8.48;4.60;;;7.40;99.90;;;;;;20916324;28;20080;-75
2021/04/20 21:17:05;;;;;;;7.65;4.55;;;7.20;99.90;;;;;;20920350;28;20034;-75
2021/04/20 21:27:12;;;;;;;8.20;4.32;;;7.10;99.90;;;;;;20931080;22;20044;-84
2021/04/20 21:37:14;;;;;;;7.90;4.70;;;6.80;99.90;;;;;;20906200;28;20124;-84
2021/04/20 21:47:26;;;;;;;;;;;6.80;99.90;;;;;;20905213;28;20132;-85
2021/04/20 21:57:31;;;;;;;9.15;4.63;;;6.30;99.90;;;;;;20937555;28;19913;-84
2021/04/20 22:07:48;;;;;;;10.48;5.07;;;6.30;99.90;;;;;;20903760;28;20033;-84
2021/04/20 22:17:50;;;;;;;8.95;4.97;;;6.30;99.90;;;;;;20923038;28;20569;-84
2021/04/20 22:28:04;;;;;;;7.53;4.45;;;6.10;99.90;;;;;;20906666;28;20051;-86
2021/04/20 22:38:27;;;;;;;7.45;4.68;;;5.80;99.90;;;;;;20904779;28;20029;-85
2021/04/20 22:48:31;;;;;;;8.38;4.43;;;5.80;99.90;;;;;;20901276;28;20040;-84
2021/04/20 22:58:44;;;;;;;8.20;4.55;;;5.60;99.90;;;;;;20902913;28;20029;-84
2021/04/20 23:08:54;;;;;;;6.50;4.40;;;5.40;99.90;;;;;;20918455;28;20048;-84
2021/04/20 23:18:58;;;;;;;8.23;4.35;;;5.60;99.90;;;;;;20917299;28;20135;-84
2021/04/20 23:29:24;;;;;;;6.82;4.10;;;5.40;99.90;;;;;;20898536;28;20086;-83
2021/04/20 23:39:26;;;;;;;7.80;4.45;;;5.80;99.90;;;;;;20914855;28;20032;-83
2021/04/20 23:49:27;;;;;;;8.90;4.65;;;5.80;99.90;;;;;;20897872;28;20040;-85
2021/04/20 23:59:29;;;;;;;;;;;5.20;99.90;;;;;;20913227;28;20047;-85
